sensor_id;sensor_type;location;lat;lon;timestamp;P1;durP1;ratioP1;P2;durP2;ratioP2
11877;SDS011;5998;42.676;23.268;2023-03-14T00:00:19;21.17;;;12.70;;
11877;SDS011;5998;42.676;23.268;2023-03-14T00:02:49;19.07;;;12.27;;
11877;SDS011;5998;42.676;23.268;2023-03-14T00:05:18;20.77;;;12.93;;
11877;SDS011;5998;42.676;23.268;2023-03-14T00:07:45;21.70;;;11.90;;
11877;SDS011;5998;42.676;23.268;2023-03-14T00:10:13;20.87;;;12.97;;
11877;SDS011;5998;42.676;23.268;2023-03-14T00:12:40;19.67;;;11.50;;
11877;SDS011;5998;42.676;23.268;2023-03-14T00:15:08;20.70;;;12.23;;
11877;SDS011;5998;42.676;23.268;2023-03-14T00:17:35;18.87;;;11.73;;
11877;SDS011;5998;42.676;23.268;2023-03-14T00:20:03;21.90;;;12.40;;
11877;SDS011;5998;42.676;23.268;2023-03-14T00:22:33;18.70;;;11.90;;
11877;SDS011;5998;42.676;23.268;2023-03-14T00:25:00;18.27;;;12.37;;
11877;SDS011;5998;42.676;23.268;2023-03-14T00:27:28;18.87;;;12.27;;
11877;SDS011;5998;42.676;23.268;2023-03-14T00:29:55;17.93;;;10.83;;
11877;SDS011;5998;42.676;23.268;2023-03-14T00:32:21;16.30;;;11.30;;
11877;SDS011;5998;42.676;23.268;2023-03-14T00:34:48;16.97;;;11.70;;
11877;SDS011;5998;42.676;23.268;2023-03-14T00:37:15;21.17;;;11.93;;
11877;SDS011;5998;42.676;23.268;2023-03-14T00:39:42;15.20;;;10.73;;
11877;SDS011;5998;42.676;23.268;2023-03-14T00:42:09;21.37;;;11.27;;
11877;SDS011;5998;42.676;23.268;2023-03-14T00:44:37;16.10;;;11.33;;
11877;SDS011;5998;42.676;23.268;2023-03-14T00:47:04;20.43;;;11.80;;
11877;SDS011;5998;42.676;23.268;2023-03-14T00:49:30;20.33;;;12.07;;
11877;SDS011;5998;42.676;23.268;2023-03-14T00:51:57;15.73;;;11.63;;
11877;SDS011;5998;42.676;23.268;2023-03-14T00:54:24;19.10;;;10.93;;
11877;SDS011;5998;42.676;23.268;2023-03-14T00:56:50;17.60;;;11.30;;
11877;SDS011;5998;42.676;23.268;2023-03-14T00:59:17;20.27;;;11.90;;
11877;SDS011;5998;42.676;23.268;2023-03-14T01:01:45;20.27;;;12.73;;
11877;SDS011;5998;42.676;23.268;2023-03-14T01:04:12;22.43;;;12.37;;
11877;SDS011;5998;42.676;23.268;2023-03-14T01:06:39;22.10;;;12.43;;
11877;SDS011;5998;42.676;23.268;2023-03-14T01:09:06;19.67;;;12.63;;
11877;SDS011;5998;42.676;23.268;2023-03-14T01:11:33;18.67;;;11.93;;
11877;SDS011;5998;42.676;23.268;2023-03-14T01:14:01;17.87;;;12.17;;
11877;SDS011;5998;42.676;23.268;2023-03-14T01:16:30;18.57;;;11.93;;
11877;SDS011;5998;42.676;23.268;2023-03-14T01:19:00;17.40;;;11.37;;
11877;SDS011;5998;42.676;23.268;2023-03-14T01:21:28;22.77;;;12.37;;
11877;SDS011;5998;42.676;23.268;2023-03-14T01:23:57;18.37;;;11.67;;
11877;SDS011;5998;42.676;23.268;2023-03-14T01:26:25;18.93;;;12.17;;
11877;SDS011;5998;42.676;23.268;2023-03-14T01:28:54;18.33;;;12.20;;
11877;SDS011;5998;42.676;23.268;2023-03-14T01:31:21;18.63;;;11.50;;
11877;SDS011;5998;42.676;23.268;2023-03-14T01:33:49;19.97;;;11.60;;
11877;SDS011;5998;42.676;23.268;2023-03-14T01:36:17;15.07;;;10.53;;
11877;SDS011;5998;42.676;23.268;2023-03-14T01:38:44;17.60;;;11.67;;
11877;SDS011;5998;42.676;23.268;2023-03-14T01:41:12;21.40;;;11.43;;
11877;SDS011;5998;42.676;23.268;2023-03-14T01:43:41;20.63;;;11.77;;
11877;SDS011;5998;42.676;23.268;2023-03-14T01:49:02;16.77;;;10.43;;
11877;SDS011;5998;42.676;23.268;2023-03-14T01:51:36;17.37;;;10.97;;
11877;SDS011;5998;42.676;23.268;2023-03-14T01:54:09;17.00;;;11.37;;
11877;SDS011;5998;42.676;23.268;2023-03-14T01:56:39;18.40;;;12.10;;
11877;SDS011;5998;42.676;23.268;2023-03-14T01:59:10;18.67;;;11.50;;
11877;SDS011;5998;42.676;23.268;2023-03-14T02:01:38;15.43;;;11.20;;
11877;SDS011;5998;42.676;23.268;2023-03-14T02:04:07;17.53;;;11.40;;
11877;SDS011;5998;42.676;23.268;2023-03-14T02:06:39;16.17;;;11.30;;
11877;SDS011;5998;42.676;23.268;2023-03-14T02:09:10;17.40;;;10.97;;
11877;SDS011;5998;42.676;23.268;2023-03-14T02:11:37;20.97;;;14.03;;
11877;SDS011;5998;42.676;23.268;2023-03-14T02:14:05;28.83;;;15.57;;
11877;SDS011;5998;42.676;23.268;2023-03-14T02:16:34;26.77;;;15.27;;
11877;SDS011;5998;42.676;23.268;2023-03-14T02:19:01;21.27;;;13.70;;
11877;SDS011;5998;42.676;23.268;2023-03-14T02:21:32;23.53;;;14.57;;
11877;SDS011;5998;42.676;23.268;2023-03-14T02:24:13;27.40;;;14.13;;
11877;SDS011;5998;42.676;23.268;2023-03-14T02:29:28;16.77;;;10.93;;
11877;SDS011;5998;42.676;23.268;2023-03-14T02:31:56;15.40;;;9.43;;
11877;SDS011;5998;42.676;23.268;2023-03-14T02:34:23;16.03;;;9.60;;
11877;SDS011;5998;42.676;23.268;2023-03-14T02:36:52;15.80;;;10.30;;
11877;SDS011;5998;42.676;23.268;2023-03-14T02:39:19;14.07;;;9.77;;
11877;SDS011;5998;42.676;23.268;2023-03-14T02:41:54;14.63;;;9.90;;
11877;SDS011;5998;42.676;23.268;2023-03-14T02:44:20;14.87;;;9.57;;
11877;SDS011;5998;42.676;23.268;2023-03-14T02:46:48;17.70;;;10.90;;
11877;SDS011;5998;42.676;23.268;2023-03-14T02:49:15;13.23;;;9.13;;
11877;SDS011;5998;42.676;23.268;2023-03-14T02:51:43;15.57;;;10.20;;
11877;SDS011;5998;42.676;23.268;2023-03-14T02:54:11;19.00;;;10.37;;
11877;SDS011;5998;42.676;23.268;2023-03-14T02:56:39;19.37;;;10.40;;
11877;SDS011;5998;42.676;23.268;2023-03-14T02:59:06;14.67;;;9.70;;
11877;SDS011;5998;42.676;23.268;2023-03-14T03:01:33;22.23;;;10.13;;
11877;SDS011;5998;42.676;23.268;2023-03-14T03:04:01;20.63;;;10.90;;
11877;SDS011;5998;42.676;23.268;2023-03-14T03:06:29;14.30;;;9.90;;
11877;SDS011;5998;42.676;23.268;2023-03-14T03:08:55;30.20;;;10.83;;
11877;SDS011;5998;42.676;23.268;2023-03-14T03:11:22;17.83;;;10.70;;
11877;SDS011;5998;42.676;23.268;2023-03-14T03:13:49;19.63;;;10.03;;
11877;SDS011;5998;42.676;23.268;2023-03-14T03:16:15;16.37;;;10.13;;
11877;SDS011;5998;42.676;23.268;2023-03-14T03:18:42;22.20;;;13.10;;
11877;SDS011;5998;42.676;23.268;2023-03-14T03:21:10;20.40;;;11.10;;
11877;SDS011;5998;42.676;23.268;2023-03-14T03:23:37;23.63;;;10.67;;
11877;SDS011;5998;42.676;23.268;2023-03-14T03:26:04;20.37;;;11.23;;
11877;SDS011;5998;42.676;23.268;2023-03-14T03:28:31;19.10;;;10.80;;
11877;SDS011;5998;42.676;23.268;2023-03-14T03:30:58;18.90;;;11.10;;
11877;SDS011;5998;42.676;23.268;2023-03-14T03:33:25;21.27;;;10.87;;
11877;SDS011;5998;42.676;23.268;2023-03-14T03:35:51;16.77;;;10.13;;
11877;SDS011;5998;42.676;23.268;2023-03-14T03:38:19;23.83;;;11.07;;
11877;SDS011;5998;42.676;23.268;2023-03-14T03:40:46;20.63;;;10.80;;
11877;SDS011;5998;42.676;23.268;2023-03-14T03:43:13;24.07;;;11.73;;
11877;SDS011;5998;42.676;23.268;2023-03-14T03:45:40;18.20;;;10.40;;
11877;SDS011;5998;42.676;23.268;2023-03-14T03:48:06;16.60;;;10.50;;
11877;SDS011;5998;42.676;23.268;2023-03-14T03:50:33;17.43;;;10.97;;
11877;SDS011;5998;42.676;23.268;2023-03-14T03:53:00;46.20;;;12.03;;
11877;SDS011;5998;42.676;23.268;2023-03-14T03:55:28;16.40;;;10.73;;
11877;SDS011;5998;42.676;23.268;2023-03-14T03:57:54;18.40;;;10.77;;
11877;SDS011;5998;42.676;23.268;2023-03-14T04:00:21;18.60;;;11.43;;
11877;SDS011;5998;42.676;23.268;2023-03-14T04:02:48;19.37;;;10.93;;
11877;SDS011;5998;42.676;23.268;2023-03-14T04:05:14;17.03;;;11.13;;
11877;SDS011;5998;42.676;23.268;2023-03-14T04:07:41;15.53;;;10.30;;
11877;SDS011;5998;42.676;23.268;2023-03-14T04:10:09;15.27;;;10.03;;
11877;SDS011;5998;42.676;23.268;2023-03-14T04:12:37;26.83;;;16.70;;
11877;SDS011;5998;42.676;23.268;2023-03-14T04:15:04;29.30;;;16.57;;
11877;SDS011;5998;42.676;23.268;2023-03-14T04:17:32;22.10;;;13.73;;
11877;SDS011;5998;42.676;23.268;2023-03-14T04:19:58;20.80;;;12.83;;
11877;SDS011;5998;42.676;23.268;2023-03-14T04:22:25;19.07;;;12.53;;
11877;SDS011;5998;42.676;23.268;2023-03-14T04:24:52;18.30;;;11.37;;
11877;SDS011;5998;42.676;23.268;2023-03-14T04:27:18;14.97;;;10.53;;
11877;SDS011;5998;42.676;23.268;2023-03-14T04:29:46;15.80;;;10.30;;
11877;SDS011;5998;42.676;23.268;2023-03-14T04:32:13;15.83;;;10.13;;
11877;SDS011;5998;42.676;23.268;2023-03-14T04:34:40;13.13;;;10.10;;
11877;SDS011;5998;42.676;23.268;2023-03-14T04:37:07;14.00;;;9.73;;
11877;SDS011;5998;42.676;23.268;2023-03-14T04:39:34;57.43;;;35.73;;
11877;SDS011;5998;42.676;23.268;2023-03-14T04:42:00;21.17;;;11.27;;
11877;SDS011;5998;42.676;23.268;2023-03-14T04:44:27;20.50;;;11.73;;
11877;SDS011;5998;42.676;23.268;2023-03-14T04:46:55;17.03;;;10.93;;
11877;SDS011;5998;42.676;23.268;2023-03-14T04:49:22;17.80;;;10.17;;
11877;SDS011;5998;42.676;23.268;2023-03-14T04:51:49;25.00;;;13.37;;
11877;SDS011;5998;42.676;23.268;2023-03-14T04:54:16;19.23;;;12.60;;
11877;SDS011;5998;42.676;23.268;2023-03-14T04:56:43;19.70;;;13.33;;
11877;SDS011;5998;42.676;23.268;2023-03-14T04:59:09;23.00;;;13.97;;
11877;SDS011;5998;42.676;23.268;2023-03-14T05:01:36;14.83;;;11.50;;
11877;SDS011;5998;42.676;23.268;2023-03-14T05:04:04;19.07;;;11.10;;
11877;SDS011;5998;42.676;23.268;2023-03-14T05:08:57;18.30;;;12.87;;
11877;SDS011;5998;42.676;23.268;2023-03-14T05:11:24;16.23;;;10.73;;
11877;SDS011;5998;42.676;23.268;2023-03-14T05:13:50;15.87;;;10.40;;
11877;SDS011;5998;42.676;23.268;2023-03-14T05:16:17;18.10;;;10.67;;
11877;SDS011;5998;42.676;23.268;2023-03-14T05:18:44;17.87;;;10.90;;
11877;SDS011;5998;42.676;23.268;2023-03-14T05:21:12;15.27;;;10.80;;
11877;SDS011;5998;42.676;23.268;2023-03-14T05:23:38;18.93;;;11.73;;
11877;SDS011;5998;42.676;23.268;2023-03-14T05:26:05;15.90;;;11.17;;
11877;SDS011;5998;42.676;23.268;2023-03-14T05:28:32;19.93;;;11.47;;
11877;SDS011;5998;42.676;23.268;2023-03-14T05:30:59;24.13;;;12.00;;
11877;SDS011;5998;42.676;23.268;2023-03-14T05:33:26;20.70;;;14.10;;
11877;SDS011;5998;42.676;23.268;2023-03-14T05:35:52;22.37;;;13.87;;
11877;SDS011;5998;42.676;23.268;2023-03-14T05:38:20;21.83;;;12.67;;
11877;SDS011;5998;42.676;23.268;2023-03-14T05:40:47;27.83;;;14.63;;
11877;SDS011;5998;42.676;23.268;2023-03-14T05:43:14;24.57;;;14.57;;
11877;SDS011;5998;42.676;23.268;2023-03-14T05:45:41;23.83;;;14.17;;
11877;SDS011;5998;42.676;23.268;2023-03-14T05:48:08;19.57;;;12.73;;
11877;SDS011;5998;42.676;23.268;2023-03-14T05:50:35;22.37;;;12.30;;
11877;SDS011;5998;42.676;23.268;2023-03-14T05:53:03;20.37;;;11.83;;
11877;SDS011;5998;42.676;23.268;2023-03-14T05:55:31;26.20;;;14.40;;
11877;SDS011;5998;42.676;23.268;2023-03-14T05:57:58;17.30;;;11.13;;
11877;SDS011;5998;42.676;23.268;2023-03-14T06:00:25;22.00;;;13.13;;
11877;SDS011;5998;42.676;23.268;2023-03-14T06:02:58;22.97;;;13.63;;
11877;SDS011;5998;42.676;23.268;2023-03-14T06:05:24;21.10;;;13.23;;
11877;SDS011;5998;42.676;23.268;2023-03-14T06:07:51;17.40;;;11.80;;
11877;SDS011;5998;42.676;23.268;2023-03-14T06:10:18;19.97;;;11.40;;
11877;SDS011;5998;42.676;23.268;2023-03-14T06:12:46;18.07;;;11.17;;
11877;SDS011;5998;42.676;23.268;2023-03-14T06:15:13;24.77;;;10.43;;
11877;SDS011;5998;42.676;23.268;2023-03-14T06:17:39;14.73;;;10.10;;
11877;SDS011;5998;42.676;23.268;2023-03-14T06:20:06;15.00;;;9.43;;
11877;SDS011;5998;42.676;23.268;2023-03-14T06:22:34;15.77;;;9.97;;
11877;SDS011;5998;42.676;23.268;2023-03-14T06:25:01;13.43;;;9.30;;
11877;SDS011;5998;42.676;23.268;2023-03-14T06:27:28;18.87;;;10.00;;
11877;SDS011;5998;42.676;23.268;2023-03-14T06:29:56;13.27;;;8.83;;
11877;SDS011;5998;42.676;23.268;2023-03-14T06:32:23;20.03;;;9.10;;
11877;SDS011;5998;42.676;23.268;2023-03-14T06:34:50;21.70;;;13.37;;
11877;SDS011;5998;42.676;23.268;2023-03-14T06:37:16;23.93;;;15.30;;
11877;SDS011;5998;42.676;23.268;2023-03-14T06:39:43;22.93;;;16.30;;
11877;SDS011;5998;42.676;23.268;2023-03-14T06:42:10;26.37;;;17.67;;
11877;SDS011;5998;42.676;23.268;2023-03-14T06:44:36;24.43;;;17.03;;
11877;SDS011;5998;42.676;23.268;2023-03-14T06:47:04;24.57;;;16.70;;
11877;SDS011;5998;42.676;23.268;2023-03-14T06:49:31;17.77;;;12.97;;
11877;SDS011;5998;42.676;23.268;2023-03-14T06:51:58;22.60;;;13.13;;
11877;SDS011;5998;42.676;23.268;2023-03-14T06:54:24;17.03;;;11.70;;
11877;SDS011;5998;42.676;23.268;2023-03-14T06:56:51;21.73;;;12.27;;
11877;SDS011;5998;42.676;23.268;2023-03-14T06:59:18;16.37;;;12.07;;
11877;SDS011;5998;42.676;23.268;2023-03-14T07:01:44;21.33;;;13.40;;
11877;SDS011;5998;42.676;23.268;2023-03-14T07:04:14;17.57;;;12.40;;
11877;SDS011;5998;42.676;23.268;2023-03-14T07:06:41;17.33;;;12.40;;
11877;SDS011;5998;42.676;23.268;2023-03-14T07:09:09;16.03;;;12.23;;
11877;SDS011;5998;42.676;23.268;2023-03-14T07:11:36;19.00;;;11.70;;
11877;SDS011;5998;42.676;23.268;2023-03-14T07:14:03;21.10;;;11.97;;
11877;SDS011;5998;42.676;23.268;2023-03-14T07:16:30;15.80;;;11.10;;
11877;SDS011;5998;42.676;23.268;2023-03-14T07:18:58;14.00;;;11.50;;
11877;SDS011;5998;42.676;23.268;2023-03-14T07:21:26;17.97;;;11.00;;
11877;SDS011;5998;42.676;23.268;2023-03-14T07:23:53;18.20;;;10.70;;
11877;SDS011;5998;42.676;23.268;2023-03-14T07:26:20;21.27;;;12.23;;
11877;SDS011;5998;42.676;23.268;2023-03-14T07:28:47;16.43;;;10.93;;
11877;SDS011;5998;42.676;23.268;2023-03-14T07:31:14;16.80;;;10.17;;
11877;SDS011;5998;42.676;23.268;2023-03-14T07:33:40;16.23;;;11.87;;
11877;SDS011;5998;42.676;23.268;2023-03-14T07:36:07;17.57;;;11.90;;
11877;SDS011;5998;42.676;23.268;2023-03-14T07:38:36;15.90;;;11.97;;
11877;SDS011;5998;42.676;23.268;2023-03-14T07:41:04;19.53;;;11.53;;
11877;SDS011;5998;42.676;23.268;2023-03-14T07:43:31;19.93;;;11.43;;
11877;SDS011;5998;42.676;23.268;2023-03-14T07:45:58;14.83;;;10.20;;
11877;SDS011;5998;42.676;23.268;2023-03-14T07:48:25;18.97;;;12.43;;
11877;SDS011;5998;42.676;23.268;2023-03-14T07:50:53;16.57;;;12.27;;
11877;SDS011;5998;42.676;23.268;2023-03-14T07:53:20;17.10;;;12.30;;
11877;SDS011;5998;42.676;23.268;2023-03-14T07:55:50;18.73;;;14.27;;
11877;SDS011;5998;42.676;23.268;2023-03-14T07:58:17;15.80;;;11.03;;
11877;SDS011;5998;42.676;23.268;2023-03-14T08:00:44;12.23;;;9.80;;
11877;SDS011;5998;42.676;23.268;2023-03-14T08:03:11;17.60;;;10.43;;
11877;SDS011;5998;42.676;23.268;2023-03-14T08:05:38;11.50;;;7.60;;
11877;SDS011;5998;42.676;23.268;2023-03-14T08:08:05;13.07;;;10.40;;
11877;SDS011;5998;42.676;23.268;2023-03-14T08:10:32;13.63;;;10.70;;
11877;SDS011;5998;42.676;23.268;2023-03-14T08:13:00;16.13;;;11.67;;
11877;SDS011;5998;42.676;23.268;2023-03-14T08:15:28;16.00;;;11.13;;
11877;SDS011;5998;42.676;23.268;2023-03-14T08:17:57;17.10;;;11.90;;
11877;SDS011;5998;42.676;23.268;2023-03-14T08:20:25;16.27;;;11.97;;
11877;SDS011;5998;42.676;23.268;2023-03-14T08:22:54;16.97;;;12.13;;
11877;SDS011;5998;42.676;23.268;2023-03-14T08:25:22;21.17;;;12.70;;
11877;SDS011;5998;42.676;23.268;2023-03-14T08:27:48;19.80;;;12.70;;
11877;SDS011;5998;42.676;23.268;2023-03-14T08:30:17;16.20;;;12.87;;
11877;SDS011;5998;42.676;23.268;2023-03-14T08:32:45;18.90;;;12.90;;
11877;SDS011;5998;42.676;23.268;2023-03-14T08:35:12;16.13;;;12.90;;
11877;SDS011;5998;42.676;23.268;2023-03-14T08:37:39;26.87;;;13.67;;
11877;SDS011;5998;42.676;23.268;2023-03-14T08:40:06;18.40;;;13.33;;
11877;SDS011;5998;42.676;23.268;2023-03-14T08:42:36;15.30;;;11.10;;
11877;SDS011;5998;42.676;23.268;2023-03-14T08:45:04;20.67;;;13.87;;
11877;SDS011;5998;42.676;23.268;2023-03-14T08:47:33;18.93;;;12.97;;
11877;SDS011;5998;42.676;23.268;2023-03-14T08:50:00;22.57;;;13.40;;
11877;SDS011;5998;42.676;23.268;2023-03-14T08:52:26;16.30;;;12.60;;
11877;SDS011;5998;42.676;23.268;2023-03-14T08:54:53;13.40;;;10.43;;
11877;SDS011;5998;42.676;23.268;2023-03-14T08:57:20;20.97;;;12.90;;
11877;SDS011;5998;42.676;23.268;2023-03-14T08:59:47;20.70;;;12.27;;
11877;SDS011;5998;42.676;23.268;2023-03-14T09:02:13;21.40;;;12.53;;
11877;SDS011;5998;42.676;23.268;2023-03-14T09:04:41;17.37;;;12.30;;
11877;SDS011;5998;42.676;23.268;2023-03-14T09:07:08;16.23;;;11.57;;
11877;SDS011;5998;42.676;23.268;2023-03-14T09:09:35;12.60;;;9.40;;
11877;SDS011;5998;42.676;23.268;2023-03-14T09:12:01;20.80;;;13.87;;
11877;SDS011;5998;42.676;23.268;2023-03-14T09:14:29;13.00;;;10.40;;
11877;SDS011;5998;42.676;23.268;2023-03-14T09:16:57;15.10;;;10.77;;
11877;SDS011;5998;42.676;23.268;2023-03-14T09:19:23;13.20;;;8.90;;
11877;SDS011;5998;42.676;23.268;2023-03-14T09:21:51;12.63;;;9.17;;
11877;SDS011;5998;42.676;23.268;2023-03-14T09:24:18;17.57;;;8.67;;
11877;SDS011;5998;42.676;23.268;2023-03-14T09:26:45;11.57;;;7.30;;
11877;SDS011;5998;42.676;23.268;2023-03-14T09:29:12;10.60;;;8.37;;
11877;SDS011;5998;42.676;23.268;2023-03-14T09:31:39;10.27;;;8.83;;
11877;SDS011;5998;42.676;23.268;2023-03-14T09:34:06;11.80;;;8.67;;
11877;SDS011;5998;42.676;23.268;2023-03-14T09:36:32;9.03;;;7.30;;
11877;SDS011;5998;42.676;23.268;2023-03-14T09:39:00;8.77;;;7.70;;
11877;SDS011;5998;42.676;23.268;2023-03-14T09:41:27;9.73;;;7.17;;
11877;SDS011;5998;42.676;23.268;2023-03-14T09:44:00;8.53;;;7.40;;
11877;SDS011;5998;42.676;23.268;2023-03-14T09:46:30;10.20;;;7.60;;
11877;SDS011;5998;42.676;23.268;2023-03-14T09:49:00;14.23;;;11.00;;
11877;SDS011;5998;42.676;23.268;2023-03-14T09:51:28;10.50;;;7.50;;
11877;SDS011;5998;42.676;23.268;2023-03-14T09:53:56;13.33;;;7.90;;
11877;SDS011;5998;42.676;23.268;2023-03-14T09:56:25;8.80;;;7.63;;
11877;SDS011;5998;42.676;23.268;2023-03-14T09:58:54;9.43;;;7.47;;
11877;SDS011;5998;42.676;23.268;2023-03-14T10:01:24;10.43;;;7.70;;
11877;SDS011;5998;42.676;23.268;2023-03-14T10:03:53;10.30;;;7.27;;
11877;SDS011;5998;42.676;23.268;2023-03-14T10:06:22;9.67;;;7.27;;
11877;SDS011;5998;42.676;23.268;2023-03-14T10:08:51;10.77;;;6.93;;
11877;SDS011;5998;42.676;23.268;2023-03-14T10:11:20;9.90;;;7.37;;
11877;SDS011;5998;42.676;23.268;2023-03-14T10:13:49;9.83;;;6.87;;
11877;SDS011;5998;42.676;23.268;2023-03-14T10:16:28;8.10;;;5.97;;
11877;SDS011;5998;42.676;23.268;2023-03-14T10:19:01;9.93;;;7.07;;
11877;SDS011;5998;42.676;23.268;2023-03-14T10:21:30;9.43;;;6.70;;
11877;SDS011;5998;42.676;23.268;2023-03-14T10:24:16;8.10;;;6.90;;
11877;SDS011;5998;42.676;23.268;2023-03-14T10:26:49;11.10;;;6.70;;
11877;SDS011;5998;42.676;23.268;2023-03-14T10:29:20;14.43;;;9.07;;
11877;SDS011;5998;42.676;23.268;2023-03-14T10:31:51;10.70;;;7.50;;
11877;SDS011;5998;42.676;23.268;2023-03-14T10:34:21;8.57;;;6.30;;
11877;SDS011;5998;42.676;23.268;2023-03-14T10:36:52;14.73;;;7.20;;
11877;SDS011;5998;42.676;23.268;2023-03-14T10:39:30;9.50;;;6.07;;
11877;SDS011;5998;42.676;23.268;2023-03-14T10:42:10;7.33;;;5.70;;
11877;SDS011;5998;42.676;23.268;2023-03-14T10:44:42;11.77;;;5.67;;
11877;SDS011;5998;42.676;23.268;2023-03-14T10:47:15;9.10;;;5.97;;
11877;SDS011;5998;42.676;23.268;2023-03-14T10:49:45;10.50;;;6.33;;
11877;SDS011;5998;42.676;23.268;2023-03-14T10:52:18;8.20;;;6.70;;
11877;SDS011;5998;42.676;23.268;2023-03-14T10:54:48;8.87;;;6.43;;
11877;SDS011;5998;42.676;23.268;2023-03-14T10:57:15;8.50;;;6.13;;
11877;SDS011;5998;42.676;23.268;2023-03-14T10:59:43;8.73;;;6.70;;
11877;SDS011;5998;42.676;23.268;2023-03-14T11:02:14;10.33;;;7.30;;
11877;SDS011;5998;42.676;23.268;2023-03-14T11:04:56;10.00;;;6.80;;
11877;SDS011;5998;42.676;23.268;2023-03-14T11:07:35;11.37;;;6.87;;
11877;SDS011;5998;42.676;23.268;2023-03-14T11:10:08;9.83;;;6.67;;
11877;SDS011;5998;42.676;23.268;2023-03-14T11:12:46;7.23;;;6.37;;
11877;SDS011;5998;42.676;23.268;2023-03-14T11:15:30;9.53;;;7.30;;
11877;SDS011;5998;42.676;23.268;2023-03-14T11:18:06;10.90;;;6.93;;
11877;SDS011;5998;42.676;23.268;2023-03-14T11:20:49;7.90;;;6.70;;
11877;SDS011;5998;42.676;23.268;2023-03-14T11:23:20;9.80;;;6.50;;
11877;SDS011;5998;42.676;23.268;2023-03-14T11:25:52;12.10;;;6.47;;
11877;SDS011;5998;42.676;23.268;2023-03-14T11:28:25;8.43;;;6.33;;
11877;SDS011;5998;42.676;23.268;2023-03-14T11:31:03;6.83;;;5.30;;
11877;SDS011;5998;42.676;23.268;2023-03-14T11:33:37;10.23;;;6.10;;
11877;SDS011;5998;42.676;23.268;2023-03-14T11:36:11;6.90;;;4.70;;
11877;SDS011;5998;42.676;23.268;2023-03-14T11:38:46;10.13;;;5.57;;
11877;SDS011;5998;42.676;23.268;2023-03-14T11:41:15;7.43;;;4.80;;
11877;SDS011;5998;42.676;23.268;2023-03-14T11:43:46;7.20;;;5.33;;
11877;SDS011;5998;42.676;23.268;2023-03-14T11:46:17;7.23;;;4.97;;
11877;SDS011;5998;42.676;23.268;2023-03-14T11:48:50;6.70;;;4.90;;
11877;SDS011;5998;42.676;23.268;2023-03-14T11:51:25;6.30;;;4.60;;
11877;SDS011;5998;42.676;23.268;2023-03-14T11:53:58;8.83;;;5.47;;
11877;SDS011;5998;42.676;23.268;2023-03-14T11:56:32;7.00;;;4.40;;
11877;SDS011;5998;42.676;23.268;2023-03-14T11:59:03;4.53;;;4.13;;
11877;SDS011;5998;42.676;23.268;2023-03-14T12:01:40;6.20;;;4.20;;
11877;SDS011;5998;42.676;23.268;2023-03-14T12:04:19;7.33;;;3.77;;
11877;SDS011;5998;42.676;23.268;2023-03-14T12:06:56;8.23;;;4.17;;
11877;SDS011;5998;42.676;23.268;2023-03-14T12:09:28;3.83;;;3.30;;
11877;SDS011;5998;42.676;23.268;2023-03-14T12:11:56;4.87;;;3.53;;
11877;SDS011;5998;42.676;23.268;2023-03-14T12:14:26;5.43;;;3.37;;
11877;SDS011;5998;42.676;23.268;2023-03-14T12:16:56;6.00;;;4.13;;
11877;SDS011;5998;42.676;23.268;2023-03-14T12:19:29;5.57;;;3.60;;
11877;SDS011;5998;42.676;23.268;2023-03-14T12:21:59;4.60;;;3.30;;
11877;SDS011;5998;42.676;23.268;2023-03-14T12:24:32;4.37;;;3.50;;
11877;SDS011;5998;42.676;23.268;2023-03-14T12:27:02;6.50;;;3.70;;
11877;SDS011;5998;42.676;23.268;2023-03-14T12:29:30;4.33;;;3.40;;
11877;SDS011;5998;42.676;23.268;2023-03-14T12:32:09;4.17;;;3.40;;
11877;SDS011;5998;42.676;23.268;2023-03-14T12:34:48;3.53;;;3.03;;
11877;SDS011;5998;42.676;23.268;2023-03-14T12:37:17;9.50;;;3.70;;
11877;SDS011;5998;42.676;23.268;2023-03-14T12:39:55;3.60;;;3.30;;
11877;SDS011;5998;42.676;23.268;2023-03-14T12:42:42;3.70;;;3.30;;
11877;SDS011;5998;42.676;23.268;2023-03-14T12:45:24;5.77;;;3.47;;
11877;SDS011;5998;42.676;23.268;2023-03-14T12:47:56;4.73;;;2.93;;
11877;SDS011;5998;42.676;23.268;2023-03-14T12:50:40;4.30;;;2.93;;
11877;SDS011;5998;42.676;23.268;2023-03-14T12:53:22;6.10;;;3.00;;
11877;SDS011;5998;42.676;23.268;2023-03-14T13:02:00;5.43;;;2.83;;
11877;SDS011;5998;42.676;23.268;2023-03-14T13:04:31;4.63;;;2.80;;
11877;SDS011;5998;42.676;23.268;2023-03-14T13:07:00;6.23;;;2.70;;
11877;SDS011;5998;42.676;23.268;2023-03-14T13:12:34;3.97;;;2.73;;
11877;SDS011;5998;42.676;23.268;2023-03-14T13:15:13;4.43;;;2.70;;
11877;SDS011;5998;42.676;23.268;2023-03-14T13:17:45;3.73;;;2.37;;
11877;SDS011;5998;42.676;23.268;2023-03-14T13:20:14;5.00;;;2.67;;
11877;SDS011;5998;42.676;23.268;2023-03-14T13:22:47;5.03;;;2.40;;
11877;SDS011;5998;42.676;23.268;2023-03-14T13:25:14;4.83;;;2.60;;
11877;SDS011;5998;42.676;23.268;2023-03-14T13:27:43;3.20;;;2.27;;
11877;SDS011;5998;42.676;23.268;2023-03-14T13:33:03;4.30;;;2.17;;
11877;SDS011;5998;42.676;23.268;2023-03-14T13:35:39;3.23;;;2.30;;
11877;SDS011;5998;42.676;23.268;2023-03-14T13:38:18;6.97;;;2.67;;
11877;SDS011;5998;42.676;23.268;2023-03-14T13:40:46;2.70;;;2.20;;
11877;SDS011;5998;42.676;23.268;2023-03-14T13:43:16;2.40;;;2.20;;
11877;SDS011;5998;42.676;23.268;2023-03-14T14:06:16;2.53;;;2.33;;
11877;SDS011;5998;42.676;23.268;2023-03-14T14:08:49;3.40;;;2.00;;
11877;SDS011;5998;42.676;23.268;2023-03-14T14:11:19;5.17;;;2.70;;
11877;SDS011;5998;42.676;23.268;2023-03-14T14:13:53;2.60;;;2.03;;
11877;SDS011;5998;42.676;23.268;2023-03-14T14:16:22;2.20;;;2.00;;
11877;SDS011;5998;42.676;23.268;2023-03-14T14:18:52;4.20;;;2.40;;
11877;SDS011;5998;42.676;23.268;2023-03-14T14:21:23;3.43;;;2.17;;
11877;SDS011;5998;42.676;23.268;2023-03-14T14:23:51;4.63;;;2.53;;
11877;SDS011;5998;42.676;23.268;2023-03-14T14:26:18;3.37;;;2.10;;
11877;SDS011;5998;42.676;23.268;2023-03-14T14:28:46;2.07;;;1.90;;
11877;SDS011;5998;42.676;23.268;2023-03-14T14:31:18;3.97;;;2.00;;
11877;SDS011;5998;42.676;23.268;2023-03-14T14:33:57;2.07;;;1.97;;
11877;SDS011;5998;42.676;23.268;2023-03-14T14:36:27;3.27;;;2.20;;
11877;SDS011;5998;42.676;23.268;2023-03-14T14:38:58;5.00;;;2.43;;
11877;SDS011;5998;42.676;23.268;2023-03-14T14:41:26;2.53;;;2.33;;
11877;SDS011;5998;42.676;23.268;2023-03-14T14:43:55;4.57;;;2.10;;
11877;SDS011;5998;42.676;23.268;2023-03-14T14:46:25;4.37;;;1.90;;
11877;SDS011;5998;42.676;23.268;2023-03-14T14:48:55;5.80;;;2.20;;
11877;SDS011;5998;42.676;23.268;2023-03-14T14:51:24;4.93;;;2.17;;
11877;SDS011;5998;42.676;23.268;2023-03-14T14:54:11;2.40;;;2.03;;
11877;SDS011;5998;42.676;23.268;2023-03-14T14:56:40;6.10;;;2.60;;
11877;SDS011;5998;42.676;23.268;2023-03-14T14:59:18;2.17;;;1.97;;
11877;SDS011;5998;42.676;23.268;2023-03-14T15:01:47;3.77;;;2.00;;
11877;SDS011;5998;42.676;23.268;2023-03-14T15:04:16;4.10;;;2.30;;
11877;SDS011;5998;42.676;23.268;2023-03-14T15:06:45;2.87;;;1.90;;
11877;SDS011;5998;42.676;23.268;2023-03-14T15:09:14;4.30;;;2.13;;
11877;SDS011;5998;42.676;23.268;2023-03-14T15:11:43;3.13;;;2.00;;
11877;SDS011;5998;42.676;23.268;2023-03-14T15:14:09;3.43;;;1.97;;
11877;SDS011;5998;42.676;23.268;2023-03-14T15:16:36;7.70;;;2.07;;
11877;SDS011;5998;42.676;23.268;2023-03-14T15:19:08;2.20;;;2.00;;
11877;SDS011;5998;42.676;23.268;2023-03-14T15:21:38;2.30;;;1.93;;